sensor_id;sensor_type;location;lat;lon;timestamp;P1;durP1;ratioP1;P2;durP2;ratioP2
28180;SDS011;15464;50.988;10.318;2022-12-18T00:01:37;66.38;;;24.42;;
28180;SDS011;15464;50.988;10.318;2022-12-18T00:04:06;77.43;;;27.55;;
28180;SDS011;15464;50.988;10.318;2022-12-18T00:06:35;69.38;;;27.23;;
28180;SDS011;15464;50.988;10.318;2022-12-18T00:09:02;86.00;;;27.80;;
28180;SDS011;15464;50.988;10.318;2022-12-18T00:11:35;66.78;;;26.83;;
28180;SDS011;15464;50.988;10.318;2022-12-18T00:14:02;62.85;;;25.80;;
28180;SDS011;15464;50.988;10.318;2022-12-18T00:16:29;60.25;;;25.88;;
28180;SDS011;15464;50.988;10.318;2022-12-18T00:18:59;62.95;;;24.90;;
28180;SDS011;15464;50.988;10.318;2022-12-18T00:21:27;72.05;;;27.20;;
28180;SDS011;15464;50.988;10.318;2022-12-18T00:23:55;58.47;;;24.33;;
28180;SDS011;15464;50.988;10.318;2022-12-18T00:26:23;51.70;;;22.42;;
28180;SDS011;15464;50.988;10.318;2022-12-18T00:28:52;47.72;;;22.30;;
28180;SDS011;15464;50.988;10.318;2022-12-18T00:31:21;54.60;;;23.75;;
28180;SDS011;15464;50.988;10.318;2022-12-18T00:33:50;56.03;;;23.63;;
28180;SDS011;15464;50.988;10.318;2022-12-18T00:36:22;57.58;;;23.88;;
28180;SDS011;15464;50.988;10.318;2022-12-18T00:38:50;58.35;;;25.88;;
28180;SDS011;15464;50.988;10.318;2022-12-18T00:41:17;55.78;;;23.40;;
28180;SDS011;15464;50.988;10.318;2022-12-18T00:44:05;55.47;;;23.25;;
28180;SDS011;15464;50.988;10.318;2022-12-18T00:49:00;48.33;;;20.98;;
28180;SDS011;15464;50.988;10.318;2022-12-18T00:51:27;57.25;;;23.00;;
28180;SDS011;15464;50.988;10.318;2022-12-18T00:53:53;57.80;;;23.67;;
28180;SDS011;15464;50.988;10.318;2022-12-18T00:56:20;54.58;;;24.40;;
28180;SDS011;15464;50.988;10.318;2022-12-18T00:58:47;58.58;;;24.42;;
28180;SDS011;15464;50.988;10.318;2022-12-18T01:01:14;61.75;;;26.05;;
28180;SDS011;15464;50.988;10.318;2022-12-18T01:03:41;55.92;;;23.38;;
28180;SDS011;15464;50.988;10.318;2022-12-18T01:06:09;64.57;;;25.00;;
28180;SDS011;15464;50.988;10.318;2022-12-18T01:08:38;51.38;;;22.13;;
28180;SDS011;15464;50.988;10.318;2022-12-18T01:11:08;65.32;;;25.77;;
28180;SDS011;15464;50.988;10.318;2022-12-18T01:13:40;60.72;;;25.70;;
28180;SDS011;15464;50.988;10.318;2022-12-18T01:16:07;67.50;;;26.30;;
28180;SDS011;15464;50.988;10.318;2022-12-18T01:18:35;63.72;;;25.75;;
28180;SDS011;15464;50.988;10.318;2022-12-18T01:21:05;60.25;;;25.02;;
28180;SDS011;15464;50.988;10.318;2022-12-18T01:23:35;60.15;;;24.63;;
28180;SDS011;15464;50.988;10.318;2022-12-18T01:26:11;60.75;;;25.20;;
28180;SDS011;15464;50.988;10.318;2022-12-18T01:28:39;65.18;;;25.40;;
28180;SDS011;15464;50.988;10.318;2022-12-18T01:31:10;62.65;;;26.48;;
28180;SDS011;15464;50.988;10.318;2022-12-18T01:33:42;60.75;;;24.63;;
28180;SDS011;15464;50.988;10.318;2022-12-18T01:36:14;55.45;;;22.33;;
28180;SDS011;15464;50.988;10.318;2022-12-18T01:38:47;52.17;;;22.73;;
28180;SDS011;15464;50.988;10.318;2022-12-18T01:41:14;55.38;;;23.70;;
28180;SDS011;15464;50.988;10.318;2022-12-18T01:46:16;51.70;;;22.42;;
28180;SDS011;15464;50.988;10.318;2022-12-18T01:48:44;49.92;;;23.60;;
28180;SDS011;15464;50.988;10.318;2022-12-18T01:51:17;52.50;;;21.80;;
28180;SDS011;15464;50.988;10.318;2022-12-18T01:53:44;51.15;;;21.63;;
28180;SDS011;15464;50.988;10.318;2022-12-18T01:56:13;54.20;;;23.40;;
28180;SDS011;15464;50.988;10.318;2022-12-18T01:58:50;51.65;;;22.00;;
28180;SDS011;15464;50.988;10.318;2022-12-18T02:01:23;57.63;;;23.30;;
28180;SDS011;15464;50.988;10.318;2022-12-18T02:03:51;54.73;;;22.50;;
28180;SDS011;15464;50.988;10.318;2022-12-18T02:09:13;54.67;;;23.00;;
28180;SDS011;15464;50.988;10.318;2022-12-18T02:14:18;48.45;;;22.10;;
28180;SDS011;15464;50.988;10.318;2022-12-18T02:17:17;53.88;;;22.48;;
28180;SDS011;15464;50.988;10.318;2022-12-18T02:19:50;53.20;;;22.42;;
28180;SDS011;15464;50.988;10.318;2022-12-18T02:22:44;48.88;;;21.33;;
28180;SDS011;15464;50.988;10.318;2022-12-18T02:25:26;52.08;;;22.02;;
28180;SDS011;15464;50.988;10.318;2022-12-18T02:27:56;45.92;;;21.10;;
28180;SDS011;15464;50.988;10.318;2022-12-18T02:30:29;50.05;;;20.85;;
28180;SDS011;15464;50.988;10.318;2022-12-18T02:33:00;57.50;;;22.10;;
28180;SDS011;15464;50.988;10.318;2022-12-18T02:35:31;44.22;;;21.08;;
28180;SDS011;15464;50.988;10.318;2022-12-18T02:38:00;50.13;;;20.52;;
28180;SDS011;15464;50.988;10.318;2022-12-18T02:40:29;43.35;;;20.25;;
28180;SDS011;15464;50.988;10.318;2022-12-18T02:43:02;44.53;;;18.58;;
28180;SDS011;15464;50.988;10.318;2022-12-18T02:45:46;42.03;;;18.55;;
28180;SDS011;15464;50.988;10.318;2022-12-18T02:48:20;50.65;;;20.80;;
28180;SDS011;15464;50.988;10.318;2022-12-18T02:53:30;49.05;;;20.95;;
28180;SDS011;15464;50.988;10.318;2022-12-18T02:56:09;55.53;;;22.60;;
28180;SDS011;15464;50.988;10.318;2022-12-18T03:01:28;57.35;;;24.65;;
28180;SDS011;15464;50.988;10.318;2022-12-18T03:04:02;57.55;;;23.77;;
28180;SDS011;15464;50.988;10.318;2022-12-18T03:06:43;51.42;;;21.73;;
28180;SDS011;15464;50.988;10.318;2022-12-18T03:09:25;62.95;;;22.50;;
28180;SDS011;15464;50.988;10.318;2022-12-18T03:12:16;58.17;;;22.17;;
28180;SDS011;15464;50.988;10.318;2022-12-18T03:17:52;63.30;;;25.27;;
28180;SDS011;15464;50.988;10.318;2022-12-18T03:20:25;66.25;;;25.48;;
28180;SDS011;15464;50.988;10.318;2022-12-18T03:22:57;67.25;;;26.05;;
28180;SDS011;15464;50.988;10.318;2022-12-18T03:25:28;61.35;;;25.42;;
28180;SDS011;15464;50.988;10.318;2022-12-18T03:27:58;62.42;;;26.02;;
28180;SDS011;15464;50.988;10.318;2022-12-18T03:30:29;62.72;;;25.60;;
28180;SDS011;15464;50.988;10.318;2022-12-18T03:33:05;61.22;;;26.42;;
28180;SDS011;15464;50.988;10.318;2022-12-18T03:35:35;64.10;;;25.30;;
28180;SDS011;15464;50.988;10.318;2022-12-18T03:38:06;58.55;;;22.60;;
28180;SDS011;15464;50.988;10.318;2022-12-18T03:45:53;47.53;;;20.50;;
28180;SDS011;15464;50.988;10.318;2022-12-18T03:48:29;43.75;;;19.50;;
28180;SDS011;15464;50.988;10.318;2022-12-18T03:51:06;44.57;;;19.40;;
28180;SDS011;15464;50.988;10.318;2022-12-18T03:53:40;47.55;;;20.55;;
28180;SDS011;15464;50.988;10.318;2022-12-18T03:56:29;48.85;;;21.70;;
28180;SDS011;15464;50.988;10.318;2022-12-18T03:58:59;41.67;;;18.08;;
28180;SDS011;15464;50.988;10.318;2022-12-18T04:01:30;44.65;;;20.45;;
28180;SDS011;15464;50.988;10.318;2022-12-18T04:04:03;41.50;;;18.25;;
28180;SDS011;15464;50.988;10.318;2022-12-18T04:09:02;39.70;;;17.10;;
28180;SDS011;15464;50.988;10.318;2022-12-18T04:11:30;39.63;;;16.70;;
28180;SDS011;15464;50.988;10.318;2022-12-18T04:13:57;34.85;;;15.32;;
28180;SDS011;15464;50.988;10.318;2022-12-18T04:16:27;37.25;;;16.48;;
28180;SDS011;15464;50.988;10.318;2022-12-18T04:18:54;41.45;;;18.73;;
28180;SDS011;15464;50.988;10.318;2022-12-18T04:21:21;36.78;;;16.20;;
28180;SDS011;15464;50.988;10.318;2022-12-18T04:23:49;38.47;;;17.05;;
28180;SDS011;15464;50.988;10.318;2022-12-18T04:26:15;47.42;;;19.50;;
28180;SDS011;15464;50.988;10.318;2022-12-18T04:28:42;54.72;;;22.90;;
28180;SDS011;15464;50.988;10.318;2022-12-18T04:31:09;52.95;;;22.55;;
28180;SDS011;15464;50.988;10.318;2022-12-18T04:33:35;56.08;;;21.90;;
28180;SDS011;15464;50.988;10.318;2022-12-18T04:36:03;52.25;;;22.25;;
28180;SDS011;15464;50.988;10.318;2022-12-18T04:38:29;52.72;;;23.15;;
28180;SDS011;15464;50.988;10.318;2022-12-18T04:40:56;47.80;;;21.73;;
28180;SDS011;15464;50.988;10.318;2022-12-18T04:43:23;52.90;;;21.88;;
28180;SDS011;15464;50.988;10.318;2022-12-18T04:45:49;49.20;;;21.55;;
28180;SDS011;15464;50.988;10.318;2022-12-18T04:48:16;42.85;;;20.33;;
28180;SDS011;15464;50.988;10.318;2022-12-18T04:50:43;48.40;;;21.67;;
28180;SDS011;15464;50.988;10.318;2022-12-18T04:53:09;48.67;;;20.10;;
28180;SDS011;15464;50.988;10.318;2022-12-18T04:55:36;46.13;;;20.92;;
28180;SDS011;15464;50.988;10.318;2022-12-18T04:58:03;44.42;;;19.92;;
28180;SDS011;15464;50.988;10.318;2022-12-18T05:00:30;48.33;;;21.27;;
28180;SDS011;15464;50.988;10.318;2022-12-18T05:02:57;45.05;;;21.13;;
28180;SDS011;15464;50.988;10.318;2022-12-18T05:05:23;51.60;;;21.85;;
28180;SDS011;15464;50.988;10.318;2022-12-18T05:07:50;47.28;;;21.33;;
28180;SDS011;15464;50.988;10.318;2022-12-18T05:10:17;49.10;;;21.48;;
28180;SDS011;15464;50.988;10.318;2022-12-18T05:12:44;53.00;;;23.33;;
28180;SDS011;15464;50.988;10.318;2022-12-18T05:15:30;47.22;;;20.75;;
28180;SDS011;15464;50.988;10.318;2022-12-18T05:17:57;54.33;;;22.67;;
28180;SDS011;15464;50.988;10.318;2022-12-18T05:20:25;56.30;;;22.63;;
28180;SDS011;15464;50.988;10.318;2022-12-18T05:22:53;52.05;;;22.52;;
28180;SDS011;15464;50.988;10.318;2022-12-18T05:25:20;48.83;;;21.33;;
28180;SDS011;15464;50.988;10.318;2022-12-18T05:27:47;51.22;;;22.83;;
28180;SDS011;15464;50.988;10.318;2022-12-18T05:30:14;48.00;;;20.95;;
28180;SDS011;15464;50.988;10.318;2022-12-18T05:32:42;49.13;;;22.15;;
28180;SDS011;15464;50.988;10.318;2022-12-18T05:35:09;46.53;;;21.77;;
28180;SDS011;15464;50.988;10.318;2022-12-18T05:37:37;46.00;;;21.35;;
28180;SDS011;15464;50.988;10.318;2022-12-18T05:40:08;49.15;;;21.40;;
28180;SDS011;15464;50.988;10.318;2022-12-18T05:42:36;52.85;;;21.77;;
28180;SDS011;15464;50.988;10.318;2022-12-18T05:45:03;50.15;;;21.20;;
28180;SDS011;15464;50.988;10.318;2022-12-18T05:47:31;45.17;;;20.43;;
28180;SDS011;15464;50.988;10.318;2022-12-18T05:49:58;45.97;;;19.52;;
28180;SDS011;15464;50.988;10.318;2022-12-18T05:52:24;46.72;;;20.50;;
28180;SDS011;15464;50.988;10.318;2022-12-18T05:54:51;46.90;;;18.60;;
28180;SDS011;15464;50.988;10.318;2022-12-18T05:57:18;41.05;;;18.73;;
28180;SDS011;15464;50.988;10.318;2022-12-18T05:59:44;43.33;;;18.17;;
28180;SDS011;15464;50.988;10.318;2022-12-18T06:02:11;43.70;;;18.63;;
28180;SDS011;15464;50.988;10.318;2022-12-18T06:04:38;43.33;;;19.70;;
28180;SDS011;15464;50.988;10.318;2022-12-18T06:07:04;38.65;;;17.45;;
28180;SDS011;15464;50.988;10.318;2022-12-18T06:09:31;39.65;;;18.58;;
28180;SDS011;15464;50.988;10.318;2022-12-18T06:11:58;41.72;;;18.67;;
28180;SDS011;15464;50.988;10.318;2022-12-18T06:14:25;38.90;;;19.70;;
28180;SDS011;15464;50.988;10.318;2022-12-18T06:16:52;48.08;;;20.88;;
28180;SDS011;15464;50.988;10.318;2022-12-18T06:19:18;48.53;;;22.15;;
28180;SDS011;15464;50.988;10.318;2022-12-18T06:21:45;50.45;;;22.92;;
28180;SDS011;15464;50.988;10.318;2022-12-18T06:24:12;52.03;;;20.95;;
28180;SDS011;15464;50.988;10.318;2022-12-18T06:26:38;49.08;;;22.05;;
28180;SDS011;15464;50.988;10.318;2022-12-18T06:29:05;51.05;;;23.70;;
28180;SDS011;15464;50.988;10.318;2022-12-18T06:31:32;49.08;;;22.05;;
28180;SDS011;15464;50.988;10.318;2022-12-18T06:34:01;49.15;;;23.55;;
28180;SDS011;15464;50.988;10.318;2022-12-18T06:36:29;48.70;;;22.00;;
28180;SDS011;15464;50.988;10.318;2022-12-18T06:38:57;53.33;;;22.90;;
28180;SDS011;15464;50.988;10.318;2022-12-18T06:41:24;49.90;;;22.83;;
28180;SDS011;15464;50.988;10.318;2022-12-18T06:43:51;49.83;;;23.85;;
28180;SDS011;15464;50.988;10.318;2022-12-18T06:46:24;61.83;;;25.27;;
28180;SDS011;15464;50.988;10.318;2022-12-18T06:48:51;60.85;;;26.70;;
28180;SDS011;15464;50.988;10.318;2022-12-18T06:51:22;59.58;;;27.65;;
28180;SDS011;15464;50.988;10.318;2022-12-18T06:53:49;67.18;;;28.70;;
28180;SDS011;15464;50.988;10.318;2022-12-18T06:56:16;61.47;;;27.48;;
28180;SDS011;15464;50.988;10.318;2022-12-18T06:58:43;59.80;;;25.45;;
28180;SDS011;15464;50.988;10.318;2022-12-18T07:01:10;59.38;;;25.05;;
28180;SDS011;15464;50.988;10.318;2022-12-18T07:03:38;52.80;;;22.88;;
28180;SDS011;15464;50.988;10.318;2022-12-18T07:06:13;51.00;;;23.30;;
28180;SDS011;15464;50.988;10.318;2022-12-18T07:08:41;52.92;;;23.77;;
28180;SDS011;15464;50.988;10.318;2022-12-18T07:11:08;51.95;;;22.73;;
28180;SDS011;15464;50.988;10.318;2022-12-18T07:13:34;56.75;;;22.45;;
28180;SDS011;15464;50.988;10.318;2022-12-18T07:16:06;52.80;;;25.17;;
28180;SDS011;15464;50.988;10.318;2022-12-18T07:21:18;51.88;;;19.85;;
28180;SDS011;15464;50.988;10.318;2022-12-18T07:23:45;46.00;;;20.05;;
28180;SDS011;15464;50.988;10.318;2022-12-18T07:26:15;49.75;;;20.45;;
28180;SDS011;15464;50.988;10.318;2022-12-18T07:28:43;49.80;;;20.83;;
28180;SDS011;15464;50.988;10.318;2022-12-18T07:31:11;47.85;;;22.40;;
28180;SDS011;15464;50.988;10.318;2022-12-18T07:33:39;46.88;;;21.38;;
28180;SDS011;15464;50.988;10.318;2022-12-18T07:36:07;50.63;;;22.60;;
28180;SDS011;15464;50.988;10.318;2022-12-18T07:38:35;49.92;;;22.20;;
28180;SDS011;15464;50.988;10.318;2022-12-18T07:41:04;45.53;;;20.83;;
28180;SDS011;15464;50.988;10.318;2022-12-18T07:43:32;50.25;;;23.65;;
28180;SDS011;15464;50.988;10.318;2022-12-18T07:45:59;50.83;;;23.75;;
28180;SDS011;15464;50.988;10.318;2022-12-18T07:48:27;48.58;;;21.95;;
28180;SDS011;15464;50.988;10.318;2022-12-18T07:50:59;54.30;;;24.60;;
28180;SDS011;15464;50.988;10.318;2022-12-18T07:53:26;50.78;;;23.58;;
28180;SDS011;15464;50.988;10.318;2022-12-18T07:55:57;49.70;;;21.83;;
28180;SDS011;15464;50.988;10.318;2022-12-18T07:58:44;51.03;;;22.58;;
28180;SDS011;15464;50.988;10.318;2022-12-18T08:01:14;50.42;;;22.75;;
28180;SDS011;15464;50.988;10.318;2022-12-18T08:03:41;51.45;;;23.30;;
28180;SDS011;15464;50.988;10.318;2022-12-18T08:06:08;59.20;;;23.38;;
28180;SDS011;15464;50.988;10.318;2022-12-18T08:08:36;50.17;;;21.52;;
28180;SDS011;15464;50.988;10.318;2022-12-18T08:11:03;56.33;;;22.48;;
28180;SDS011;15464;50.988;10.318;2022-12-18T08:13:30;49.67;;;21.80;;
28180;SDS011;15464;50.988;10.318;2022-12-18T08:16:01;49.38;;;21.70;;
28180;SDS011;15464;50.988;10.318;2022-12-18T08:18:31;53.05;;;21.65;;
28180;SDS011;15464;50.988;10.318;2022-12-18T08:21:09;56.80;;;23.88;;
28180;SDS011;15464;50.988;10.318;2022-12-18T08:23:39;53.50;;;22.70;;
28180;SDS011;15464;50.988;10.318;2022-12-18T08:26:09;56.65;;;23.25;;
28180;SDS011;15464;50.988;10.318;2022-12-18T08:28:37;53.95;;;24.25;;
28180;SDS011;15464;50.988;10.318;2022-12-18T08:31:04;58.70;;;24.13;;
28180;SDS011;15464;50.988;10.318;2022-12-18T08:33:31;46.83;;;22.42;;
28180;SDS011;15464;50.988;10.318;2022-12-18T08:35:59;52.90;;;23.67;;
28180;SDS011;15464;50.988;10.318;2022-12-18T08:38:26;55.20;;;24.25;;
28180;SDS011;15464;50.988;10.318;2022-12-18T08:40:59;54.75;;;24.00;;
28180;SDS011;15464;50.988;10.318;2022-12-18T08:43:26;53.67;;;24.45;;
28180;SDS011;15464;50.988;10.318;2022-12-18T08:46:12;158.52;;;27.30;;
28180;SDS011;15464;50.988;10.318;2022-12-18T08:48:47;59.47;;;22.45;;
28180;SDS011;15464;50.988;10.318;2022-12-18T08:51:15;47.03;;;21.70;;
28180;SDS011;15464;50.988;10.318;2022-12-18T08:53:43;50.33;;;23.20;;
28180;SDS011;15464;50.988;10.318;2022-12-18T08:56:13;56.70;;;24.33;;
28180;SDS011;15464;50.988;10.318;2022-12-18T08:58:41;51.30;;;23.75;;
28180;SDS011;15464;50.988;10.318;2022-12-18T09:01:09;49.80;;;24.00;;
28180;SDS011;15464;50.988;10.318;2022-12-18T09:03:37;53.95;;;24.75;;
28180;SDS011;15464;50.988;10.318;2022-12-18T09:06:05;52.40;;;24.45;;
28180;SDS011;15464;50.988;10.318;2022-12-18T09:08:32;52.30;;;23.55;;
28180;SDS011;15464;50.988;10.318;2022-12-18T09:11:03;61.40;;;28.50;;
28180;SDS011;15464;50.988;10.318;2022-12-18T09:13:30;56.55;;;27.27;;
28180;SDS011;15464;50.988;10.318;2022-12-18T09:15:56;53.33;;;25.67;;
28180;SDS011;15464;50.988;10.318;2022-12-18T09:18:23;62.03;;;28.27;;
28180;SDS011;15464;50.988;10.318;2022-12-18T09:20:51;60.65;;;28.13;;
28180;SDS011;15464;50.988;10.318;2022-12-18T09:23:19;54.90;;;27.10;;
28180;SDS011;15464;50.988;10.318;2022-12-18T09:25:46;51.95;;;25.92;;
28180;SDS011;15464;50.988;10.318;2022-12-18T09:28:14;56.83;;;26.92;;
28180;SDS011;15464;50.988;10.318;2022-12-18T09:30:44;59.25;;;26.17;;
28180;SDS011;15464;50.988;10.318;2022-12-18T09:33:15;51.08;;;25.23;;
28180;SDS011;15464;50.988;10.318;2022-12-18T09:35:43;54.20;;;25.55;;
28180;SDS011;15464;50.988;10.318;2022-12-18T09:38:12;47.92;;;24.10;;
28180;SDS011;15464;50.988;10.318;2022-12-18T09:40:42;54.33;;;26.02;;
28180;SDS011;15464;50.988;10.318;2022-12-18T09:43:18;50.00;;;24.50;;
28180;SDS011;15464;50.988;10.318;2022-12-18T09:45:50;49.78;;;24.15;;
28180;SDS011;15464;50.988;10.318;2022-12-18T09:48:30;43.50;;;22.40;;
28180;SDS011;15464;50.988;10.318;2022-12-18T09:51:05;46.92;;;21.58;;
28180;SDS011;15464;50.988;10.318;2022-12-18T09:53:38;37.08;;;18.33;;
28180;SDS011;15464;50.988;10.318;2022-12-18T09:56:23;40.63;;;20.85;;
28180;SDS011;15464;50.988;10.318;2022-12-18T09:58:58;37.13;;;20.88;;
28180;SDS011;15464;50.988;10.318;2022-12-18T10:01:30;36.35;;;19.42;;
28180;SDS011;15464;50.988;10.318;2022-12-18T10:04:09;36.67;;;17.92;;
28180;SDS011;15464;50.988;10.318;2022-12-18T10:06:39;34.65;;;18.63;;
28180;SDS011;15464;50.988;10.318;2022-12-18T10:09:19;30.02;;;16.50;;
28180;SDS011;15464;50.988;10.318;2022-12-18T10:12:13;37.22;;;20.45;;
28180;SDS011;15464;50.988;10.318;2022-12-18T10:14:51;39.05;;;20.10;;
28180;SDS011;15464;50.988;10.318;2022-12-18T10:20:31;36.63;;;19.25;;
28180;SDS011;15464;50.988;10.318;2022-12-18T10:23:05;41.33;;;21.60;;
28180;SDS011;15464;50.988;10.318;2022-12-18T10:28:26;41.45;;;21.45;;
28180;SDS011;15464;50.988;10.318;2022-12-18T10:33:23;43.58;;;21.30;;
28180;SDS011;15464;50.988;10.318;2022-12-18T10:35:53;42.58;;;22.02;;
28180;SDS011;15464;50.988;10.318;2022-12-18T10:43:31;104.45;;;25.42;;
28180;SDS011;15464;50.988;10.318;2022-12-18T10:51:21;43.35;;;22.92;;
28180;SDS011;15464;50.988;10.318;2022-12-18T10:56:45;39.08;;;21.83;;
28180;SDS011;15464;50.988;10.318;2022-12-18T10:59:14;39.03;;;21.83;;
28180;SDS011;15464;50.988;10.318;2022-12-18T11:01:51;35.65;;;20.33;;
28180;SDS011;15464;50.988;10.318;2022-12-18T11:04:22;26.30;;;15.38;;
28180;SDS011;15464;50.988;10.318;2022-12-18T11:09:23;35.78;;;20.15;;
28180;SDS011;15464;50.988;10.318;2022-12-18T11:11:55;39.65;;;20.15;;
28180;SDS011;15464;50.988;10.318;2022-12-18T11:14:30;37.55;;;20.27;;
28180;SDS011;15464;50.988;10.318;2022-12-18T11:17:00;33.13;;;18.80;;
28180;SDS011;15464;50.988;10.318;2022-12-18T11:19:54;31.50;;;18.75;;
28180;SDS011;15464;50.988;10.318;2022-12-18T11:22:32;31.60;;;17.75;;
28180;SDS011;15464;50.988;10.318;2022-12-18T11:27:54;33.35;;;18.55;;
28180;SDS011;15464;50.988;10.318;2022-12-18T11:30:33;32.83;;;19.35;;
28180;SDS011;15464;50.988;10.318;2022-12-18T11:35:48;30.25;;;18.92;;
28180;SDS011;15464;50.988;10.318;2022-12-18T11:38:31;35.08;;;19.77;;
28180;SDS011;15464;50.988;10.318;2022-12-18T11:43:42;34.95;;;20.42;;
28180;SDS011;15464;50.988;10.318;2022-12-18T11:46:36;27.10;;;16.35;;
28180;SDS011;15464;50.988;10.318;2022-12-18T11:49:52;26.90;;;17.73;;
28180;SDS011;15464;50.988;10.318;2022-12-18T11:52:07;27.15;;;16.98;;
28180;SDS011;15464;50.988;10.318;2022-12-18T11:54:45;23.88;;;14.93;;
28180;SDS011;15464;50.988;10.318;2022-12-18T12:00:04;24.38;;;14.27;;
28180;SDS011;15464;50.988;10.318;2022-12-18T12:08:29;24.73;;;15.52;;
28180;SDS011;15464;50.988;10.318;2022-12-18T12:13:57;22.02;;;13.52;;
28180;SDS011;15464;50.988;10.318;2022-12-18T12:19:38;19.45;;;11.75;;
28180;SDS011;15464;50.988;10.318;2022-12-18T12:22:24;19.75;;;11.93;;
28180;SDS011;15464;50.988;10.318;2022-12-18T12:28:06;22.73;;;14.65;;
28180;SDS011;15464;50.988;10.318;2022-12-18T12:33:44;20.60;;;12.02;;
28180;SDS011;15464;50.988;10.318;2022-12-18T12:36:46;29.88;;;16.25;;
28180;SDS011;15464;50.988;10.318;2022-12-18T12:39:24;31.88;;;15.93;;
28180;SDS011;15464;50.988;10.318;2022-12-18T12:42:13;27.10;;;15.48;;
28180;SDS011;15464;50.988;10.318;2022-12-18T12:45:05;24.13;;;13.60;;
28180;SDS011;15464;50.988;10.318;2022-12-18T12:47:35;24.27;;;13.23;;
28180;SDS011;15464;50.988;10.318;2022-12-18T12:50:06;23.15;;;13.82;;
28180;SDS011;15464;50.988;10.318;2022-12-18T12:52:45;30.40;;;14.60;;
28180;SDS011;15464;50.988;10.318;2022-12-18T12:55:16;26.92;;;15.00;;
28180;SDS011;15464;50.988;10.318;2022-12-18T13:00:41;91.40;;;19.98;;
28180;SDS011;15464;50.988;10.318;2022-12-18T13:06:14;24.30;;;13.52;;
28180;SDS011;15464;50.988;10.318;2022-12-18T13:08:57;27.30;;;14.82;;
28180;SDS011;15464;50.988;10.318;2022-12-18T13:14:34;21.88;;;13.07;;
28180;SDS011;15464;50.988;10.318;2022-12-18T13:20:11;23.70;;;15.48;;
28180;SDS011;15464;50.988;10.318;2022-12-18T13:22:43;26.70;;;16.38;;
28180;SDS011;15464;50.988;10.318;2022-12-18T13:28:05;23.27;;;16.35;;
28180;SDS011;15464;50.988;10.318;2022-12-18T13:43:24;28.35;;;17.00;;
28180;SDS011;15464;50.988;10.318;2022-12-18T13:46:02;28.05;;;16.20;;
28180;SDS011;15464;50.988;10.318;2022-12-18T13:48:57;26.95;;;17.33;;
28180;SDS011;15464;50.988;10.318;2022-12-18T13:51:27;30.02;;;17.60;;
28180;SDS011;15464;50.988;10.318;2022-12-18T13:53:56;28.33;;;17.38;;
28180;SDS011;15464;50.988;10.318;2022-12-18T13:56:30;28.70;;;17.50;;
28180;SDS011;15464;50.988;10.318;2022-12-18T14:04:29;34.85;;;19.63;;
28180;SDS011;15464;50.988;10.318;2022-12-18T14:07:07;58.97;;;22.97;;
28180;SDS011;15464;50.988;10.318;2022-12-18T14:09:41;38.40;;;22.42;;
28180;SDS011;15464;50.988;10.318;2022-12-18T14:12:20;66.93;;;19.25;;
28180;SDS011;15464;50.988;10.318;2022-12-18T14:17:56;23.58;;;15.93;;
28180;SDS011;15464;50.988;10.318;2022-12-18T14:20:26;27.05;;;16.98;;
28180;SDS011;15464;50.988;10.318;2022-12-18T14:22:57;27.67;;;17.42;;
28180;SDS011;15464;50.988;10.318;2022-12-18T14:25:27;23.83;;;17.05;;
28180;SDS011;15464;50.988;10.318;2022-12-18T14:28:02;24.87;;;16.50;;
28180;SDS011;15464;50.988;10.318;2022-12-18T14:30:39;29.83;;;18.20;;
28180;SDS011;15464;50.988;10.318;2022-12-18T14:33:11;29.63;;;18.13;;
28180;SDS011;15464;50.988;10.318;2022-12-18T14:35:41;29.35;;;18.92;;
28180;SDS011;15464;50.988;10.318;2022-12-18T14:38:31;27.48;;;17.77;;
28180;SDS011;15464;50.988;10.318;2022-12-18T14:41:11;30.10;;;18.77;;
28180;SDS011;15464;50.988;10.318;2022-12-18T14:43:40;31.95;;;19.17;;
28180;SDS011;15464;50.988;10.318;2022-12-18T14:46:29;28.90;;;18.65;;
28180;SDS011;15464;50.988;10.318;2022-12-18T14:48:56;31.95;;;20.25;;
28180;SDS011;15464;50.988;10.318;2022-12-18T14:51:24;35.05;;;19.35;;
28180;SDS011;15464;50.988;10.318;2022-12-18T14:56:44;37.17;;;23.80;;
28180;SDS011;15464;50.988;10.318;2022-12-18T14:59:19;40.50;;;24.23;;
28180;SDS011;15464;50.988;10.318;2022-12-18T15:04:28;36.90;;;23.50;;
28180;SDS011;15464;50.988;10.318;2022-12-18T15:09:32;32.65;;;20.65;;
28180;SDS011;15464;50.988;10.318;2022-12-18T15:11:59;29.58;;;19.90;;
28180;SDS011;15464;50.988;10.318;2022-12-18T15:16:59;32.78;;;22.08;;
28180;SDS011;15464;50.988;10.318;2022-12-18T15:19:40;33.95;;;22.23;;
28180;SDS011;15464;50.988;10.318;2022-12-18T15:22:21;34.50;;;22.25;;
28180;SDS011;15464;50.988;10.318;2022-12-18T15:24:52;35.05;;;22.88;;
28180;SDS011;15464;50.988;10.318;2022-12-18T15:27:30;28.38;;;17.98;;
28180;SDS011;15464;50.988;10.318;2022-12-18T15:30:23;33.63;;;21.13;;
28180;SDS011;15464;50.988;10.318;2022-12-18T15:32:50;37.33;;;22.08;;
28180;SDS011;15464;50.988;10.318;2022-12-18T15:37:44;36.05;;;22.98;;
28180;SDS011;15464;50.988;10.318;2022-12-18T15:40:16;36.20;;;22.60;;
28180;SDS011;15464;50.988;10.318;2022-12-18T15:42:45;36.80;;;23.45;;
28180;SDS011;15464;50.988;10.318;2022-12-18T15:45:30;34.30;;;22.70;;
28180;SDS011;15464;50.988;10.318;2022-12-18T15:47:57;42.63;;;25.13;;
28180;SDS011;15464;50.988;10.318;2022-12-18T15:50:24;53.65;;;30.25;;
28180;SDS011;15464;50.988;10.318;2022-12-18T15:52:53;53.22;;;29.90;;
28180;SDS011;15464;50.988;10.318;2022-12-18T15:55:22;46.25;;;26.55;;
28180;SDS011;15464;50.988;10.318;2022-12-18T15:58:09;38.75;;;23.50;;
28180;SDS011;15464;50.988;10.318;2022-12-18T16:03:05;38.97;;;22.88;;
28180;SDS011;15464;50.988;10.318;2022-12-18T16:05:33;38.20;;;22.80;;
28180;SDS011;15464;50.988;10.318;2022-12-18T16:07:59;33.72;;;20.30;;
28180;SDS011;15464;50.988;10.318;2022-12-18T16:10:26;41.75;;;25.25;;
28180;SDS011;15464;50.988;10.318;2022-12-18T16:12:53;47.25;;;29.38;;
28180;SDS011;15464;50.988;10.318;2022-12-18T16:15:20;40.35;;;25.55;;
28180;SDS011;15464;50.988;10.318;2022-12-18T16:17:50;39.17;;;24.45;;
28180;SDS011;15464;50.988;10.318;2022-12-18T16:20:21;35.75;;;24.17;;
28180;SDS011;15464;50.988;10.318;2022-12-18T16:22:49;39.83;;;24.95;;
28180;SDS011;15464;50.988;10.318;2022-12-18T16:27:42;45.15;;;26.73;;
28180;SDS011;15464;50.988;10.318;2022-12-18T16:30:29;37.30;;;24.90;;
28180;SDS011;15464;50.988;10.318;2022-12-18T16:33:03;36.17;;;24.10;;
28180;SDS011;15464;50.988;10.318;2022-12-18T16:38:01;36.33;;;23.42;;
28180;SDS011;15464;50.988;10.318;2022-12-18T16:40:27;49.13;;;28.95;;
28180;SDS011;15464;50.988;10.318;2022-12-18T16:42:57;46.35;;;28.50;;
28180;SDS011;15464;50.988;10.318;2022-12-18T16:45:27;43.88;;;26.38;;
28180;SDS011;15464;50.988;10.318;2022-12-18T16:47:59;47.03;;;28.05;;
28180;SDS011;15464;50.988;10.318;2022-12-18T16:50:26;45.50;;;27.60;;
28180;SDS011;15464;50.988;10.318;2022-12-18T16:52:53;49.47;;;31.65;;